Friday, July 20, 2018, 12:43 PM EDT
Back to Local

KPIT, Greater Pittsburgh International

Location: Coraopolis, PA, United States Lat: 40.483
Local Time: 12:43 PM EDT (16:43 GMT) Lon: -80.233
Time Zone: US/Eastern Elev: 1204 ft

Show me the last for .
Show Decoded

2018-07-20 11:51 METAR KPIT 201551Z 20012G16KT 10SM FEW055 FEW120 SCT250 27/16 A3001 RMK AO2
                 SLP160 DSNT CB SW T02720156 =
2018-07-20 10:51 METAR KPIT 201451Z 15009G15KT 120V190 10SM FEW055 FEW120 BKN250 26/16 A3001 RMK
                 AO2 SLP160 T02560156 58007 =
2018-07-20 09:51 METAR KPIT 201351Z 17007KT 10SM FEW055 FEW120 BKN250 24/16 A3002 RMK AO2 SLP164
                 T02440156 =
2018-07-20 08:51 METAR KPIT 201251Z 14009KT 10SM FEW055 FEW070 BKN250 22/14 A3003 RMK AO2 SLP167
                 T02220144 =
2018-07-20 07:51 METAR KPIT 201151Z 14005KT 10SM FEW050 SCT070 21/14 A3003 RMK AO2 SLP168
                 T02060144 10211 20189 53004 =
2018-07-20 06:51 METAR KPIT 201051Z 14005KT 10SM SCT070 SCT250 19/14 A3003 RMK AO2 SLP166
                 T01940139 =
2018-07-20 05:51 METAR KPIT 200951Z 14006KT 10SM SCT070 SCT250 19/14 A3002 RMK AO2 SLP164
                 T01940139 =
2018-07-20 04:51 METAR KPIT 200851Z 13006KT 10SM SCT070 SCT250 19/14 A3002 RMK AO2 SLP164
                 T01940144 56004 =
2018-07-20 03:51 METAR KPIT 200751Z 15006KT 10SM BKN070 20/14 A3002 RMK AO2 SLP164 T02000144 =
2018-07-20 02:51 METAR KPIT 200651Z 14005KT 10SM BKN070 21/14 A3003 RMK AO2 SLP166 T02060144 =
2018-07-20 01:51 METAR KPIT 200551Z 16005KT 10SM FEW250 21/14 A3003 RMK AO2 SLP168 T02060144
                 10267 20206 58001 =
2018-07-20 00:51 METAR KPIT 200451Z 13005KT 10SM FEW250 22/15 A3004 RMK AO2 SLP170 T02170150
                 402780144 =
2018-07-19 23:51 METAR KPIT 200351Z 14005KT 10SM SCT250 23/14 A3004 RMK AO2 SLP170 T02280144 =
2018-07-19 22:51 METAR KPIT 200251Z 13003KT 10SM BKN250 23/14 A3003 RMK AO2 SLP169 T02280144
                 53003 =
2018-07-19 21:51 METAR KPIT 200151Z 15003KT 10SM BKN250 24/14 A3003 RMK AO2 SLP167 T02440139 =
2018-07-19 20:51 METAR KPIT 200051Z 12005KT 10SM BKN250 25/14 A3002 RMK AO2 SLP165 T02500139 =
2018-07-19 19:51 METAR KPIT 192351Z 15005KT 10SM SCT250 27/13 A3002 RMK AO2 SLP166 T02670133
                 10278 20261 58009 =
2018-07-19 18:51 METAR KPIT 192251Z 16005KT 10SM SCT250 27/12 A3003 RMK AO2 SLP169 T02720122 =
2018-07-19 17:51 METAR KPIT 192151Z VRB04KT 10SM BKN250 28/12 A3005 RMK AO2 SLP175 T02780122 =
2018-07-19 16:51 METAR KPIT 192051Z 00000KT 10SM BKN250 27/11 A3005 RMK AO2 SLP177 T02720106
                 56012 =
2018-07-19 15:51 METAR KPIT 191951Z 20008KT 10SM BKN250 27/11 A3006 RMK AO2 SLP179 T02720111 =
2018-07-19 14:51 METAR KPIT 191851Z 19009KT 10SM BKN250 27/12 A3007 RMK AO2 SLP184 T02670117 =
2018-07-19 13:51 METAR KPIT 191751Z 16009KT 10SM FEW055 BKN250 26/11 A3009 RMK AO2 SLP188
                 T02610111 10267 20172 58010 =
2018-07-19 12:51 METAR KPIT 191651Z 17004KT 10SM SCT048 BKN250 26/12 A3011 RMK AO2 SLP193
                 T02610122 =

Support USWX by starting your Amazon purchase here.